Johnson City, Tennessee
Current Conditions -  °F | °C
As of 1:15 PM on Friday 31 Oct 2014 (Local Time) from K0A9 Reporting Station
Broken Clouds Broken Clouds  
Wind Chill: 50°   Ceiling: 9000
Heat Index: 50°   Visibility: 10mi
Dew Point: 37°   Wind: 8mph
Humidity: 62%   Direction: 280°W
Pressure: 29.9"   Gusts: NA
Location:  36.32°N, 82.34°W
Report Text: K0A9 311715Z AUTO 28007KT 10SM FEW075 BKN090 10/03 A2990 RMK
Loading
Personal Weather Stations






























Interactive Weather Map New forecast layout! Learn more

10-Day Weather Forecast

Advertisements
Track Severe Weather on mobile